createdAt,value
2019-06-08T00:00:07.046Z,14.80
2019-06-08T00:02:35.470Z,14.70
2019-06-08T00:05:05.637Z,14.70
2019-06-08T00:07:34.034Z,14.70
2019-06-08T00:10:02.504Z,14.70
2019-06-08T00:12:30.925Z,14.60
2019-06-08T00:14:59.339Z,14.50
2019-06-08T00:17:38.074Z,14.50
2019-06-08T00:19:57.898Z,14.50
2019-06-08T00:22:26.296Z,14.50
2019-06-08T00:24:54.702Z,14.50
2019-06-08T00:27:24.518Z,14.50
2019-06-08T00:29:53.025Z,14.40
2019-06-08T00:32:22.603Z,14.30
2019-06-08T00:34:51.246Z,14.30
2019-06-08T00:37:20.784Z,14.20
2019-06-08T00:39:49.374Z,14.20
2019-06-08T00:42:19.188Z,14.20
2019-06-08T00:44:47.860Z,14.10
2019-06-08T00:47:16.393Z,14.10
2019-06-08T00:49:44.847Z,14.10
2019-06-08T00:52:13.250Z,14.00
2019-06-08T00:54:41.645Z,14.00
2019-06-08T00:57:10.106Z,14.00
2019-06-08T00:59:38.499Z,13.90
2019-06-08T01:02:06.907Z,13.80
2019-06-08T01:04:35.546Z,13.80
2019-06-08T01:07:04.113Z,13.80
2019-06-08T01:09:32.678Z,13.80
2019-06-08T01:12:02.071Z,13.70
2019-06-08T01:14:30.474Z,13.70
2019-06-08T01:16:58.876Z,13.80
2019-06-08T01:19:27.463Z,13.90
2019-06-08T01:21:56.176Z,13.90
2019-06-08T01:24:25.676Z,14.00
2019-06-08T01:26:54.154Z,14.10
2019-06-08T01:29:22.547Z,14.20
2019-06-08T01:31:50.940Z,14.20
2019-06-08T01:34:20.557Z,14.30
2019-06-08T01:36:49.121Z,14.30
2019-06-08T01:39:17.796Z,14.30
2019-06-08T01:41:46.218Z,14.30
2019-06-08T01:44:14.630Z,14.30
2019-06-08T01:46:43.027Z,14.30
2019-06-08T01:49:11.675Z,14.30
2019-06-08T01:51:40.075Z,14.30
2019-06-08T01:54:08.478Z,14.20
2019-06-08T01:56:36.872Z,14.20
2019-06-08T01:59:05.353Z,14.30
2019-06-08T02:01:34.225Z,14.20
2019-06-08T02:04:02.938Z,14.20
2019-06-08T02:06:32.457Z,14.20
2019-06-08T02:09:01.314Z,14.30
2019-06-08T02:11:30.847Z,14.20
2019-06-08T02:13:59.571Z,14.20
2019-06-08T02:16:29.625Z,14.20
2019-06-08T02:18:58.315Z,14.20
2019-06-08T02:21:26.813Z,14.10
2019-06-08T02:23:55.277Z,14.10
2019-06-08T02:26:26.976Z,14.10
2019-06-08T02:28:53.790Z,14.10
2019-06-08T02:31:28.169Z,14.10
2019-06-08T02:33:56.573Z,14.00
2019-06-08T02:36:24.966Z,14.00
2019-06-08T02:38:53.426Z,13.90
2019-06-08T02:41:21.854Z,13.90
2019-06-08T02:43:50.379Z,13.90
2019-06-08T02:46:18.775Z,13.90
2019-06-08T02:49:03.652Z,13.90
2019-06-08T02:51:18.417Z,13.90
2019-06-08T02:53:46.811Z,13.80
2019-06-08T02:56:15.283Z,13.80
2019-06-08T02:58:43.751Z,13.80
2019-06-08T03:01:13.915Z,13.70
2019-06-08T03:03:44.077Z,13.70
2019-06-08T03:06:14.103Z,13.80
2019-06-08T03:08:44.025Z,13.70
2019-06-08T03:11:13.845Z,13.70
2019-06-08T03:13:44.339Z,13.70
2019-06-08T03:16:12.758Z,13.70
2019-06-08T03:18:42.611Z,13.70
2019-06-08T03:21:11.417Z,13.60
2019-06-08T03:23:41.507Z,13.60
2019-06-08T03:26:09.943Z,13.60
2019-06-08T03:28:39.976Z,13.60
2019-06-08T03:31:08.783Z,13.60
2019-06-08T03:33:45.339Z,13.60
2019-06-08T03:36:07.348Z,13.50
2019-06-08T03:38:35.878Z,13.60
2019-06-08T03:41:04.362Z,13.50
2019-06-08T03:43:32.761Z,13.50
2019-06-08T03:46:01.153Z,13.50
2019-06-08T03:48:29.559Z,13.50
2019-06-08T03:50:57.955Z,13.50
2019-06-08T03:53:26.352Z,13.40
2019-06-08T03:55:54.766Z,13.40
2019-06-08T03:58:23.162Z,13.40
2019-06-08T04:00:51.807Z,13.40
2019-06-08T04:03:20.478Z,13.40
2019-06-08T04:05:50.065Z,13.30
2019-06-08T04:08:18.602Z,13.30
2019-06-08T04:10:47.077Z,13.30
2019-06-08T04:13:15.478Z,13.30
2019-06-08T04:15:50.254Z,13.30
2019-06-08T04:18:18.923Z,13.20
2019-06-08T04:20:48.829Z,13.20
2019-06-08T04:23:17.447Z,13.10
2019-06-08T04:25:47.679Z,13.10
2019-06-08T04:28:15.976Z,13.10
2019-06-08T04:30:45.307Z,13.10
2019-06-08T04:33:14.742Z,13.10
2019-06-08T04:35:45.163Z,13.10
2019-06-08T04:38:13.880Z,13.10
2019-06-08T04:40:43.512Z,13.10
2019-06-08T04:43:12.028Z,13.10
2019-06-08T04:45:41.161Z,13.10
2019-06-08T04:48:10.545Z,13.00
2019-06-08T04:50:40.734Z,13.00
2019-06-08T04:53:09.065Z,13.00
2019-06-08T04:55:38.834Z,12.90
2019-06-08T04:58:07.610Z,12.90
2019-06-08T05:00:36.246Z,12.90
2019-06-08T05:03:04.733Z,12.90
2019-06-08T05:05:33.150Z,12.90
2019-06-08T05:08:01.778Z,12.90
2019-06-08T05:10:30.169Z,12.90
2019-06-08T05:12:58.561Z,12.90
2019-06-08T05:15:26.965Z,12.80
2019-06-08T05:17:55.378Z,12.90
2019-06-08T05:20:37.600Z,12.80
2019-06-08T05:22:54.056Z,12.90
2019-06-08T05:25:22.563Z,12.90
2019-06-08T05:27:50.946Z,12.90
2019-06-08T05:30:19.796Z,13.00
2019-06-08T05:32:49.556Z,13.00
2019-06-08T05:35:18.207Z,13.10
2019-06-08T05:37:47.763Z,13.30
2019-06-08T05:40:16.649Z,13.40
2019-06-08T05:42:45.725Z,13.40
2019-06-08T05:45:14.779Z,13.30
2019-06-08T05:47:43.891Z,13.30
2019-06-08T05:50:12.534Z,13.40
2019-06-08T05:52:41.884Z,13.20
2019-06-08T05:55:10.458Z,13.30
2019-06-08T05:57:40.023Z,13.40
2019-06-08T06:00:10.244Z,13.70
2019-06-08T06:02:40.083Z,13.60
2019-06-08T06:05:08.920Z,13.80
2019-06-08T06:07:37.320Z,14.70
2019-06-08T06:10:05.962Z,15.60
2019-06-08T06:12:34.380Z,15.90
2019-06-08T06:15:03.447Z,16.90
2019-06-08T06:17:32.090Z,16.90
2019-06-08T06:20:00.634Z,18.10
2019-06-08T06:22:29.027Z,17.00
2019-06-08T06:24:57.516Z,16.10
2019-06-08T06:27:25.917Z,15.90
2019-06-08T06:29:54.719Z,16.00
2019-06-08T06:32:25.299Z,15.10
2019-06-08T06:34:53.772Z,15.60
2019-06-08T06:47:54.647Z,15.30
2019-06-08T06:50:23.093Z,15.70
2019-06-08T06:52:52.845Z,15.90
2019-06-08T06:55:25.256Z,16.10
2019-06-08T06:57:53.541Z,16.30
2019-06-08T07:00:32.492Z,16.10
2019-06-08T07:03:01.962Z,16.20
2019-06-08T07:05:30.701Z,16.20
2019-06-08T07:08:01.203Z,15.60
2019-06-08T07:10:29.638Z,15.60
2019-06-08T07:12:58.037Z,16.20
2019-06-08T07:15:30.488Z,16.60
2019-06-08T07:17:58.919Z,16.10
2019-06-08T07:20:29.310Z,16.10
2019-06-08T07:22:58.999Z,15.80
2019-06-08T07:25:27.575Z,15.10
2019-06-08T07:28:04.930Z,15.10
2019-06-08T07:30:33.447Z,15.80
2019-06-08T07:33:01.872Z,16.30
2019-06-08T07:35:37.411Z,16.80
2019-06-08T07:38:09.233Z,16.90
2019-06-08T07:40:39.278Z,16.60
2019-06-08T07:43:09.362Z,15.50
2019-06-08T07:45:37.868Z,15.50
2019-06-08T07:48:06.448Z,15.10
2019-06-08T07:50:35.116Z,15.10
2019-06-08T07:53:03.700Z,15.00
2019-06-08T07:55:32.510Z,14.50
2019-06-08T07:58:01.266Z,14.40
2019-06-08T08:00:29.736Z,14.60
2019-06-08T08:02:58.323Z,14.60
2019-06-08T08:05:26.778Z,14.80
2019-06-08T08:07:55.166Z,14.80
2019-06-08T08:10:23.672Z,14.90
2019-06-08T08:12:52.718Z,15.30
2019-06-08T08:15:21.527Z,15.40
2019-06-08T08:17:52.269Z,15.30
2019-06-08T08:20:21.071Z,15.40
2019-06-08T08:22:54.318Z,15.60
2019-06-08T08:25:21.206Z,15.70
2019-06-08T08:27:50.784Z,15.40
2019-06-08T08:30:22.651Z,15.50
2019-06-08T08:33:03.014Z,16.00
2019-06-08T08:35:31.062Z,16.30
2019-06-08T08:38:03.889Z,16.50
2019-06-08T08:40:30.381Z,16.00
2019-06-08T08:43:01.469Z,16.70
2019-06-08T08:45:29.182Z,17.30
2019-06-08T08:48:14.428Z,18.00
2019-06-08T08:50:28.329Z,17.20
2019-06-08T08:53:00.344Z,16.50
2019-06-08T08:55:30.115Z,16.80
2019-06-08T08:57:59.409Z,17.00
2019-06-08T09:00:29.544Z,17.50
2019-06-08T09:03:28.901Z,18.40
2019-06-08T09:05:33.326Z,17.90
2019-06-08T09:08:03.697Z,19.30
2019-06-08T09:10:31.994Z,19.70
2019-06-08T09:13:04.440Z,21.10
2019-06-08T09:15:32.223Z,20.20
2019-06-08T09:18:03.698Z,20.10
2019-06-08T09:20:34.424Z,19.90
2019-06-08T09:23:11.676Z,19.60
2019-06-08T09:25:33.043Z,20.90
2019-06-08T09:28:04.872Z,21.20
2019-06-08T09:30:38.529Z,21.80
2019-06-08T09:36:01.019Z,20.60
2019-06-08T09:38:28.737Z,20.40
2019-06-08T09:41:01.241Z,19.60
2019-06-08T09:43:30.043Z,19.10
2019-06-08T09:46:00.566Z,19.00
2019-06-08T09:48:29.011Z,18.30
2019-06-08T09:50:59.881Z,18.10
2019-06-08T09:53:36.916Z,17.90
2019-06-08T09:56:02.322Z,18.70
2019-06-08T09:58:29.079Z,18.40
2019-06-08T10:01:02.040Z,19.30
2019-06-08T10:03:31.130Z,19.20
2019-06-08T10:06:05.686Z,19.80
2019-06-08T10:11:40.256Z,20.00
2019-06-08T10:14:11.798Z,19.50
2019-06-08T10:16:41.264Z,20.10
2019-06-08T10:19:10.449Z,20.00
2019-06-08T10:21:42.879Z,21.20
2019-06-08T10:24:09.935Z,20.70
2019-06-08T10:26:38.638Z,19.50
2019-06-08T10:29:10.694Z,19.10
2019-06-08T10:31:43.450Z,18.60
2019-06-08T10:34:11.089Z,18.90
2019-06-08T10:36:40.122Z,20.30
2019-06-08T10:39:11.442Z,21.20
2019-06-08T10:41:44.920Z,21.60
2019-06-08T10:44:14.976Z,20.20
2019-06-08T10:46:50.004Z,20.70
2019-06-08T10:49:18.870Z,20.70
2019-06-08T10:51:48.799Z,21.30
2019-06-08T10:54:23.447Z,22.30
2019-06-08T10:57:02.482Z,21.50
2019-06-08T10:59:37.281Z,20.40
2019-06-08T11:02:09.593Z,19.70
2019-06-08T11:04:38.650Z,19.90
2019-06-08T11:07:13.289Z,19.90
2019-06-08T11:09:38.429Z,19.30
2019-06-08T11:12:14.961Z,20.00
2019-06-08T11:14:42.098Z,21.00
2019-06-08T11:17:11.322Z,20.50
2019-06-08T11:19:48.025Z,20.70
2019-06-08T11:22:18.566Z,19.80
2019-06-08T11:24:50.232Z,20.70
2019-06-08T11:27:18.883Z,20.60
2019-06-08T11:29:47.779Z,20.40
2019-06-08T11:32:18.356Z,20.80
2019-06-08T11:34:48.815Z,20.90
2019-06-08T11:37:20.792Z,21.10
2019-06-08T11:39:49.122Z,19.60
2019-06-08T11:42:19.149Z,19.90
2019-06-08T11:44:47.960Z,20.30
2019-06-08T11:47:19.371Z,19.80
2019-06-08T11:49:50.064Z,19.20
2019-06-08T11:52:19.009Z,19.30
2019-06-08T11:54:48.057Z,19.60
2019-06-08T11:57:19.496Z,20.50
2019-06-08T11:59:49.454Z,21.00
2019-06-08T12:02:21.073Z,21.80
2019-06-08T12:04:53.592Z,21.00
2019-06-08T12:07:22.152Z,20.70
2019-06-08T12:12:39.795Z,20.10
2019-06-08T12:15:21.188Z,20.00
2019-06-08T12:17:48.245Z,19.70
2019-06-08T12:20:19.797Z,19.10
2019-06-08T12:22:48.360Z,18.90
2019-06-08T12:25:18.852Z,19.20
2019-06-08T12:27:49.863Z,19.00
2019-06-08T12:30:25.465Z,19.70
2019-06-08T12:32:51.579Z,21.30
2019-06-08T12:35:23.287Z,21.20
2019-06-08T12:37:51.847Z,19.10
2019-06-08T12:40:20.930Z,19.30
2019-06-08T12:42:49.500Z,18.70
2019-06-08T12:45:20.019Z,19.20
2019-06-08T12:47:55.898Z,18.50
2019-06-08T12:50:28.183Z,18.90
2019-06-08T12:52:58.340Z,19.10
2019-06-08T12:55:37.748Z,19.00
2019-06-08T12:58:12.994Z,19.00
2019-06-08T13:00:42.294Z,19.70
2019-06-08T13:03:11.696Z,19.90
2019-06-08T13:05:43.772Z,19.80
2019-06-08T13:08:13.439Z,19.30
2019-06-08T13:10:44.260Z,18.60
2019-06-08T13:13:12.905Z,18.70
2019-06-08T13:15:43.903Z,19.00
2019-06-08T13:18:15.210Z,19.70
2019-06-08T13:20:43.895Z,20.10
2019-06-08T13:23:13.074Z,20.10
2019-06-08T13:25:44.568Z,19.60
2019-06-08T13:28:19.408Z,19.40
2019-06-08T13:30:47.864Z,18.80
2019-06-08T13:33:16.737Z,18.60
2019-06-08T13:35:48.310Z,18.80
2019-06-08T13:38:21.915Z,19.00
2019-06-08T13:43:40.537Z,19.70
2019-06-08T13:46:08.972Z,19.60
2019-06-08T13:48:41.458Z,19.20
2019-06-08T13:51:11.870Z,19.20
2019-06-08T13:53:40.362Z,19.40
2019-06-08T13:56:08.843Z,19.60
2019-06-08T13:58:38.213Z,20.10
2019-06-08T14:01:09.944Z,19.80
2019-06-08T14:03:39.390Z,19.20
2019-06-08T14:06:07.950Z,19.00
2019-06-08T14:08:38.652Z,18.80
2019-06-08T14:11:08.294Z,18.80
2019-06-08T14:13:39.811Z,18.80
2019-06-08T14:16:16.020Z,19.10
2019-06-08T14:18:48.627Z,19.30
2019-06-08T14:21:21.564Z,19.50
2019-06-08T14:23:48.417Z,19.10
2019-06-08T14:26:20.139Z,18.80
2019-06-08T14:28:50.489Z,18.50
2019-06-08T14:31:23.974Z,18.30
2019-06-08T14:33:53.591Z,18.10
2019-06-08T14:36:25.817Z,18.10
2019-06-08T14:38:53.797Z,18.50
2019-06-08T14:41:22.754Z,18.50
2019-06-08T14:44:02.845Z,18.10
2019-06-08T14:46:41.157Z,17.90
2019-06-08T14:49:07.055Z,17.90
2019-06-08T14:51:49.044Z,18.10
2019-06-08T14:54:24.364Z,18.60
2019-06-08T14:56:57.543Z,19.40
2019-06-08T14:59:31.735Z,19.80
2019-06-08T15:02:01.733Z,19.60
2019-06-08T15:04:35.964Z,19.30
2019-06-08T15:07:00.634Z,19.00
2019-06-08T15:09:29.856Z,18.70
2019-06-08T15:11:58.762Z,19.10
2019-06-08T15:14:38.550Z,18.80
2019-06-08T15:17:01.118Z,19.00
2019-06-08T15:19:32.601Z,18.90
2019-06-08T15:22:03.155Z,18.90
2019-06-08T15:24:33.001Z,19.00
2019-06-08T15:27:01.551Z,19.10
2019-06-08T15:29:31.344Z,19.20
2019-06-08T15:32:00.168Z,19.10
2019-06-08T15:34:32.944Z,18.70
2019-06-08T15:37:03.207Z,18.50
2019-06-08T15:39:39.151Z,18.40
2019-06-08T15:42:08.323Z,18.60
2019-06-08T15:44:39.435Z,18.70
2019-06-08T15:47:12.330Z,18.70
2019-06-08T15:49:50.188Z,18.80
2019-06-08T15:52:20.632Z,18.60
2019-06-08T15:54:49.204Z,18.60
2019-06-08T15:57:19.411Z,18.50
2019-06-08T15:59:49.264Z,18.50
2019-06-08T16:02:19.522Z,18.30
2019-06-08T16:04:48.107Z,18.20
2019-06-08T16:07:16.987Z,18.30
2019-06-08T16:09:45.742Z,18.20
2019-06-08T16:12:14.427Z,18.20
2019-06-08T16:14:43.138Z,18.10
2019-06-08T16:17:11.599Z,18.00
2019-06-08T16:19:40.136Z,18.10
2019-06-08T16:22:08.743Z,18.10
2019-06-08T16:24:37.251Z,17.90
2019-06-08T16:27:05.717Z,17.90
2019-06-08T16:29:35.142Z,18.00
2019-06-08T16:32:03.767Z,18.10
2019-06-08T16:34:33.515Z,17.90
2019-06-08T16:37:02.143Z,18.00
2019-06-08T16:39:33.334Z,17.90
2019-06-08T16:42:02.156Z,18.10
2019-06-08T16:44:31.963Z,18.10
2019-06-08T16:47:02.250Z,18.20
2019-06-08T16:49:31.215Z,18.20
2019-06-08T16:52:02.360Z,18.20
2019-06-08T16:54:32.708Z,18.20
2019-06-08T16:57:10.166Z,18.20
2019-06-08T16:59:34.360Z,18.10
2019-06-08T17:02:03.075Z,18.10
2019-06-08T17:04:33.125Z,17.80
2019-06-08T17:07:02.009Z,17.70
2019-06-08T17:09:32.357Z,17.80
2019-06-08T17:12:02.368Z,17.60
2019-06-08T17:14:31.953Z,17.30
2019-06-08T17:17:00.546Z,17.30
2019-06-08T17:19:31.923Z,17.20
2019-06-08T17:22:00.607Z,17.20
2019-06-08T17:24:30.276Z,17.20
2019-06-08T17:26:58.965Z,17.10
2019-06-08T17:29:29.057Z,17.10
2019-06-08T17:31:58.763Z,17.10
2019-06-08T17:37:14.788Z,16.60
2019-06-08T17:39:43.266Z,16.40
2019-06-08T17:42:11.772Z,16.30
2019-06-08T17:44:40.412Z,16.20
2019-06-08T17:49:59.335Z,16.10
2019-06-08T17:52:28.234Z,16.10
2019-06-08T17:54:57.136Z,16.00
2019-06-08T17:57:38.922Z,15.90
2019-06-08T17:59:55.807Z,15.80
2019-06-08T18:02:28.192Z,15.70
2019-06-08T18:04:54.846Z,15.70
2019-06-08T18:07:23.302Z,15.80
2019-06-08T18:09:52.128Z,15.80
2019-06-08T18:12:20.681Z,15.80
2019-06-08T18:14:49.233Z,15.90
2019-06-08T18:17:17.902Z,15.90
2019-06-08T18:19:49.510Z,15.90
2019-06-08T18:22:18.704Z,16.00
2019-06-08T18:24:47.906Z,16.00
2019-06-08T18:27:18.050Z,16.10
2019-06-08T18:29:48.707Z,16.10
2019-06-08T18:32:18.120Z,16.20
2019-06-08T18:34:48.074Z,16.20
2019-06-08T18:37:18.118Z,16.20
2019-06-08T18:39:49.055Z,16.10
2019-06-08T18:42:18.010Z,16.10
2019-06-08T18:44:48.525Z,16.00
2019-06-08T18:47:18.481Z,16.00
2019-06-08T18:49:49.201Z,16.00
2019-06-08T18:52:18.007Z,15.90
2019-06-08T18:54:49.268Z,15.90
2019-06-08T18:57:17.627Z,15.90
2019-06-08T18:59:50.608Z,15.90
2019-06-08T19:02:18.044Z,15.90
2019-06-08T19:04:48.088Z,15.80
2019-06-08T19:07:17.587Z,15.70
2019-06-08T19:09:48.043Z,15.70
2019-06-08T19:12:16.885Z,15.50
2019-06-08T19:14:47.966Z,15.20
2019-06-08T19:17:17.518Z,14.90
2019-06-08T19:19:51.895Z,14.80
2019-06-08T19:22:19.166Z,14.70
2019-06-08T19:24:50.453Z,14.60
2019-06-08T19:27:18.484Z,14.50
2019-06-08T19:29:49.951Z,14.50
2019-06-08T19:32:17.630Z,14.50
2019-06-08T19:34:52.341Z,14.50
2019-06-08T19:37:17.254Z,14.40
2019-06-08T19:39:47.704Z,14.40
2019-06-08T19:42:17.536Z,14.40
2019-06-08T19:44:55.772Z,14.30
2019-06-08T19:47:17.606Z,14.30
2019-06-08T19:49:47.734Z,14.20
2019-06-08T19:52:18.286Z,14.20
2019-06-08T19:54:52.111Z,14.20
2019-06-08T19:57:17.471Z,14.20
2019-06-08T19:59:46.033Z,14.20
2019-06-08T20:02:14.429Z,14.20
2019-06-08T20:04:43.099Z,14.10
2019-06-08T20:07:11.484Z,14.10
2019-06-08T20:09:41.003Z,14.00
2019-06-08T20:12:09.522Z,14.10
2019-06-08T20:14:38.234Z,14.10
2019-06-08T20:17:08.120Z,14.10
2019-06-08T20:19:37.383Z,14.10
2019-06-08T20:22:07.507Z,14.00
2019-06-08T20:24:37.752Z,14.00
2019-06-08T20:27:07.715Z,13.90
2019-06-08T20:29:38.125Z,13.80
2019-06-08T20:32:08.480Z,13.80
2019-06-08T20:34:38.110Z,13.60
2019-06-08T20:37:08.096Z,13.60
2019-06-08T20:39:38.203Z,13.50
2019-06-08T20:42:11.633Z,13.30
2019-06-08T20:44:38.224Z,13.10
2019-06-08T20:47:08.494Z,12.90
2019-06-08T20:49:37.376Z,12.80
2019-06-08T20:52:08.587Z,12.70
2019-06-08T20:54:36.896Z,12.60
2019-06-08T20:57:07.602Z,12.50
2019-06-08T20:59:39.531Z,12.30
2019-06-08T21:02:08.379Z,12.20
2019-06-08T21:04:38.299Z,12.10
2019-06-08T21:07:08.130Z,11.90
2019-06-08T21:09:37.060Z,11.70
2019-06-08T21:12:06.291Z,11.60
2019-06-08T21:14:34.788Z,11.50
2019-06-08T21:17:03.304Z,11.40
2019-06-08T21:19:32.150Z,11.30
2019-06-08T21:22:00.944Z,11.20
2019-06-08T21:24:29.484Z,11.10
2019-06-08T21:27:00.611Z,11.00
2019-06-08T21:29:46.592Z,10.80
2019-06-08T21:32:01.797Z,10.70
2019-06-08T21:34:29.160Z,10.70
2019-06-08T21:37:00.667Z,10.60
2019-06-08T21:39:28.367Z,10.60
2019-06-08T21:42:01.357Z,10.40
2019-06-08T21:44:27.956Z,10.40
2019-06-08T21:46:59.873Z,10.40
2019-06-08T21:49:27.673Z,10.30
2019-06-08T21:51:59.646Z,10.20
2019-06-08T21:54:27.178Z,10.20
2019-06-08T21:56:58.904Z,10.10
2019-06-08T21:59:26.073Z,10.00
2019-06-08T22:01:56.912Z,9.90
2019-06-08T22:04:24.942Z,9.80
2019-06-08T22:06:54.098Z,9.80
2019-06-08T22:09:22.606Z,9.90
2019-06-08T22:11:52.528Z,9.80
2019-06-08T22:14:21.176Z,9.70
2019-06-08T22:16:50.846Z,9.70
2019-06-08T22:19:19.955Z,9.80
2019-06-08T22:21:48.346Z,9.70
2019-06-08T22:24:17.211Z,9.60
2019-06-08T22:26:45.707Z,9.50
2019-06-08T22:29:14.372Z,9.50
2019-06-08T22:31:43.075Z,9.50
2019-06-08T22:34:11.479Z,9.50
2019-06-08T22:36:39.870Z,9.50
2019-06-08T22:39:08.396Z,9.40
2019-06-08T22:41:37.278Z,9.40
2019-06-08T22:44:08.090Z,9.40
2019-06-08T22:46:37.504Z,9.30
2019-06-08T22:49:08.103Z,9.30
2019-06-08T22:51:38.238Z,9.30
2019-06-08T22:54:07.981Z,9.30
2019-06-08T22:56:37.235Z,9.20
2019-06-08T22:59:08.474Z,9.20
2019-06-08T23:01:38.192Z,9.10
2019-06-08T23:04:08.689Z,9.10
2019-06-08T23:06:38.478Z,9.10
2019-06-08T23:09:08.712Z,9.00
2019-06-08T23:11:37.623Z,9.20
2019-06-08T23:14:12.762Z,9.10
2019-06-08T23:16:36.617Z,9.10
2019-06-08T23:19:07.567Z,9.10
2019-06-08T23:21:38.099Z,9.00
2019-06-08T23:24:08.403Z,9.10
2019-06-08T23:26:37.244Z,9.10
2019-06-08T23:29:07.776Z,9.10
2019-06-08T23:31:38.616Z,9.00
2019-06-08T23:34:09.849Z,9.00
2019-06-08T23:36:48.396Z,8.90
2019-06-08T23:39:08.018Z,9.00
2019-06-08T23:41:37.740Z,9.00
2019-06-08T23:44:06.203Z,9.10
2019-06-08T23:46:34.863Z,9.10
2019-06-08T23:49:04.313Z,9.00
2019-06-08T23:51:33.411Z,9.00
2019-06-08T23:54:03.767Z,8.90
2019-06-08T23:56:31.970Z,9.00
2019-06-08T23:59:01.357Z,8.90
